RJOB(METAR)
05/24 14:00
METAR RJOB 240500Z 23010KT CAVOK 29/07 Q1012 RMK A2990=
戻る
トップページへ戻る
IMOC Co,.Ltd.